sensor_id;sensor_type;location;lat;lon;timestamp;temperature;humidity
23873;DHT22;42884;50.718;4.630;2022-11-15T00:00:07;12.80;99.90
23873;DHT22;42884;50.718;4.630;2022-11-15T00:02:33;12.80;99.90
23873;DHT22;42884;50.718;4.630;2022-11-15T00:04:58;12.80;99.90
23873;DHT22;42884;50.718;4.630;2022-11-15T00:07:24;12.70;99.90
23873;DHT22;42884;50.718;4.630;2022-11-15T00:09:52;12.80;99.90
23873;DHT22;42884;50.718;4.630;2022-11-15T00:12:18;12.90;99.90
23873;DHT22;42884;50.718;4.630;2022-11-15T00:14:43;12.90;99.90
23873;DHT22;42884;50.718;4.630;2022-11-15T00:17:09;13.00;99.90
23873;DHT22;42884;50.718;4.630;2022-11-15T00:19:35;12.80;99.90
23873;DHT22;42884;50.718;4.630;2022-11-15T00:22:00;12.80;99.90
23873;DHT22;42884;50.718;4.630;2022-11-15T00:24:26;13.00;99.90
23873;DHT22;42884;50.718;4.630;2022-11-15T00:26:51;13.00;99.90
23873;DHT22;42884;50.718;4.630;2022-11-15T00:29:17;13.10;99.90
23873;DHT22;42884;50.718;4.630;2022-11-15T00:31:42;13.00;99.90
23873;DHT22;42884;50.718;4.630;2022-11-15T00:34:08;13.00;99.90
23873;DHT22;42884;50.718;4.630;2022-11-15T00:36:34;13.10;99.90
23873;DHT22;42884;50.718;4.630;2022-11-15T00:39:00;13.00;99.90
23873;DHT22;42884;50.718;4.630;2022-11-15T00:41:25;13.10;99.90
23873;DHT22;42884;50.718;4.630;2022-11-15T00:43:51;13.20;99.90
23873;DHT22;42884;50.718;4.630;2022-11-15T00:46:16;13.20;99.90
23873;DHT22;42884;50.718;4.630;2022-11-15T00:48:42;13.20;99.90
23873;DHT22;42884;50.718;4.630;2022-11-15T00:51:07;13.10;99.90
23873;DHT22;42884;50.718;4.630;2022-11-15T00:53:33;13.20;99.90
23873;DHT22;42884;50.718;4.630;2022-11-15T00:55:58;13.20;99.90
23873;DHT22;42884;50.718;4.630;2022-11-15T00:58:24;13.30;99.90
23873;DHT22;42884;50.718;4.630;2022-11-15T01:00:50;13.40;99.90
23873;DHT22;42884;50.718;4.630;2022-11-15T01:03:15;13.30;99.90
23873;DHT22;42884;50.718;4.630;2022-11-15T01:05:41;13.30;99.90
23873;DHT22;42884;50.718;4.630;2022-11-15T01:08:10;13.40;99.90
23873;DHT22;42884;50.718;4.630;2022-11-15T01:10:36;13.40;99.90
23873;DHT22;42884;50.718;4.630;2022-11-15T01:13:02;13.30;99.90
23873;DHT22;42884;50.718;4.630;2022-11-15T01:15:27;13.30;99.90
23873;DHT22;42884;50.718;4.630;2022-11-15T01:17:53;13.30;99.90
23873;DHT22;42884;50.718;4.630;2022-11-15T01:20:20;13.30;99.90
23873;DHT22;42884;50.718;4.630;2022-11-15T01:22:45;13.40;99.90
23873;DHT22;42884;50.718;4.630;2022-11-15T01:25:11;13.40;99.90
23873;DHT22;42884;50.718;4.630;2022-11-15T01:27:36;13.50;99.90
23873;DHT22;42884;50.718;4.630;2022-11-15T01:30:02;13.40;99.90
23873;DHT22;42884;50.718;4.630;2022-11-15T01:32:29;13.30;99.90
23873;DHT22;42884;50.718;4.630;2022-11-15T01:34:54;13.30;99.90
23873;DHT22;42884;50.718;4.630;2022-11-15T01:37:20;13.40;99.90
23873;DHT22;42884;50.718;4.630;2022-11-15T01:39:45;13.40;99.90
23873;DHT22;42884;50.718;4.630;2022-11-15T01:42:14;13.40;99.90
23873;DHT22;42884;50.718;4.630;2022-11-15T01:47:07;13.50;99.90
23873;DHT22;42884;50.718;4.630;2022-11-15T01:49:35;13.60;99.90
23873;DHT22;42884;50.718;4.630;2022-11-15T01:52:02;13.60;99.90
23873;DHT22;42884;50.718;4.630;2022-11-15T01:54:28;13.70;99.90
23873;DHT22;42884;50.718;4.630;2022-11-15T01:56:59;13.60;99.90
23873;DHT22;42884;50.718;4.630;2022-11-15T01:59:26;13.60;99.90
23873;DHT22;42884;50.718;4.630;2022-11-15T02:01:52;13.70;99.90
23873;DHT22;42884;50.718;4.630;2022-11-15T02:04:24;13.60;99.90
23873;DHT22;42884;50.718;4.630;2022-11-15T02:06:51;13.60;99.90
23873;DHT22;42884;50.718;4.630;2022-11-15T02:09:17;13.60;99.90
23873;DHT22;42884;50.718;4.630;2022-11-15T02:11:42;13.70;99.90
23873;DHT22;42884;50.718;4.630;2022-11-15T02:14:09;13.70;99.90
23873;DHT22;42884;50.718;4.630;2022-11-15T02:16:39;13.70;99.90
23873;DHT22;42884;50.718;4.630;2022-11-15T02:32:34;13.70;99.90
23873;DHT22;42884;50.718;4.630;2022-11-15T02:42:54;13.60;99.90
23873;DHT22;42884;50.718;4.630;2022-11-15T02:45:41;13.60;99.90
23873;DHT22;42884;50.718;4.630;2022-11-15T02:48:08;13.60;99.90
23873;DHT22;42884;50.718;4.630;2022-11-15T02:50:34;13.40;99.90
23873;DHT22;42884;50.718;4.630;2022-11-15T02:53:00;13.30;99.90
23873;DHT22;42884;50.718;4.630;2022-11-15T02:55:26;13.40;99.90
23873;DHT22;42884;50.718;4.630;2022-11-15T02:57:53;13.40;99.90
23873;DHT22;42884;50.718;4.630;2022-11-15T03:00:24;13.50;99.90
23873;DHT22;42884;50.718;4.630;2022-11-15T03:03:02;13.50;99.90
23873;DHT22;42884;50.718;4.630;2022-11-15T03:11:10;13.60;99.90
23873;DHT22;42884;50.718;4.630;2022-11-15T03:15:54;13.60;99.90
23873;DHT22;42884;50.718;4.630;2022-11-15T03:18:23;13.60;99.90
23873;DHT22;42884;50.718;4.630;2022-11-15T03:20:53;13.50;99.90
23873;DHT22;42884;50.718;4.630;2022-11-15T03:23:20;13.50;99.90
23873;DHT22;42884;50.718;4.630;2022-11-15T03:25:47;13.40;99.90
23873;DHT22;42884;50.718;4.630;2022-11-15T03:28:14;13.40;99.90
23873;DHT22;42884;50.718;4.630;2022-11-15T03:30:41;13.40;99.90
23873;DHT22;42884;50.718;4.630;2022-11-15T03:33:07;13.40;99.90
23873;DHT22;42884;50.718;4.630;2022-11-15T03:35:35;13.40;99.90
23873;DHT22;42884;50.718;4.630;2022-11-15T03:40:38;13.40;99.90
23873;DHT22;42884;50.718;4.630;2022-11-15T03:45:36;13.40;99.90
23873;DHT22;42884;50.718;4.630;2022-11-15T03:48:13;13.40;99.90
23873;DHT22;42884;50.718;4.630;2022-11-15T03:50:39;13.30;99.90
23873;DHT22;42884;50.718;4.630;2022-11-15T03:53:05;13.30;99.90
23873;DHT22;42884;50.718;4.630;2022-11-15T03:55:31;13.30;99.90
23873;DHT22;42884;50.718;4.630;2022-11-15T03:57:57;13.30;99.90
23873;DHT22;42884;50.718;4.630;2022-11-15T04:00:23;13.30;99.90
23873;DHT22;42884;50.718;4.630;2022-11-15T04:02:49;13.30;99.90
23873;DHT22;42884;50.718;4.630;2022-11-15T04:05:14;13.20;99.90
23873;DHT22;42884;50.718;4.630;2022-11-15T04:07:40;12.90;99.90
23873;DHT22;42884;50.718;4.630;2022-11-15T04:10:05;12.90;99.90
23873;DHT22;42884;50.718;4.630;2022-11-15T04:12:35;13.00;99.90
23873;DHT22;42884;50.718;4.630;2022-11-15T04:17:51;12.70;99.90
23873;DHT22;42884;50.718;4.630;2022-11-15T04:20:18;12.80;99.90
23873;DHT22;42884;50.718;4.630;2022-11-15T04:23:03;12.70;99.90
23873;DHT22;42884;50.718;4.630;2022-11-15T04:25:49;12.60;99.90
23873;DHT22;42884;50.718;4.630;2022-11-15T04:28:15;12.50;99.90
23873;DHT22;42884;50.718;4.630;2022-11-15T04:30:40;12.50;99.90
23873;DHT22;42884;50.718;4.630;2022-11-15T04:33:06;12.60;99.90
23873;DHT22;42884;50.718;4.630;2022-11-15T04:35:32;12.60;99.90
23873;DHT22;42884;50.718;4.630;2022-11-15T04:37:57;12.70;99.90
23873;DHT22;42884;50.718;4.630;2022-11-15T04:40:23;12.70;99.90
23873;DHT22;42884;50.718;4.630;2022-11-15T04:42:49;12.70;99.90
23873;DHT22;42884;50.718;4.630;2022-11-15T04:45:14;12.60;99.90
23873;DHT22;42884;50.718;4.630;2022-11-15T04:47:42;12.70;99.90
23873;DHT22;42884;50.718;4.630;2022-11-15T04:50:08;12.70;99.90
23873;DHT22;42884;50.718;4.630;2022-11-15T04:52:34;12.60;99.90
23873;DHT22;42884;50.718;4.630;2022-11-15T04:54:59;12.60;99.90
23873;DHT22;42884;50.718;4.630;2022-11-15T04:57:25;12.60;99.90
23873;DHT22;42884;50.718;4.630;2022-11-15T04:59:50;12.60;99.90
23873;DHT22;42884;50.718;4.630;2022-11-15T05:02:16;12.70;99.90
23873;DHT22;42884;50.718;4.630;2022-11-15T05:04:41;12.50;99.90
23873;DHT22;42884;50.718;4.630;2022-11-15T05:07:07;12.40;99.90
23873;DHT22;42884;50.718;4.630;2022-11-15T05:09:32;12.30;99.90
23873;DHT22;42884;50.718;4.630;2022-11-15T05:11:58;12.30;99.90
23873;DHT22;42884;50.718;4.630;2022-11-15T05:14:23;12.30;99.90
23873;DHT22;42884;50.718;4.630;2022-11-15T05:16:49;12.20;99.90
23873;DHT22;42884;50.718;4.630;2022-11-15T05:19:14;12.20;99.90
23873;DHT22;42884;50.718;4.630;2022-11-15T05:21:40;12.30;99.90
23873;DHT22;42884;50.718;4.630;2022-11-15T05:24:05;12.20;99.90
23873;DHT22;42884;50.718;4.630;2022-11-15T05:26:31;12.20;99.90
23873;DHT22;42884;50.718;4.630;2022-11-15T05:28:58;12.20;99.90
23873;DHT22;42884;50.718;4.630;2022-11-15T05:31:24;12.10;99.90
23873;DHT22;42884;50.718;4.630;2022-11-15T05:33:50;12.10;99.90
23873;DHT22;42884;50.718;4.630;2022-11-15T05:38:50;12.00;99.90
23873;DHT22;42884;50.718;4.630;2022-11-15T05:41:16;11.90;99.90
23873;DHT22;42884;50.718;4.630;2022-11-15T05:43:43;11.90;99.90
23873;DHT22;42884;50.718;4.630;2022-11-15T05:46:09;11.80;99.90
23873;DHT22;42884;50.718;4.630;2022-11-15T05:48:35;11.60;99.90
23873;DHT22;42884;50.718;4.630;2022-11-15T05:51:01;11.70;99.90
23873;DHT22;42884;50.718;4.630;2022-11-15T05:53:27;11.60;99.90
23873;DHT22;42884;50.718;4.630;2022-11-15T05:55:53;11.60;99.90
23873;DHT22;42884;50.718;4.630;2022-11-15T05:58:18;11.50;99.90
23873;DHT22;42884;50.718;4.630;2022-11-15T06:00:45;11.40;99.90
23873;DHT22;42884;50.718;4.630;2022-11-15T06:03:11;11.40;99.90
23873;DHT22;42884;50.718;4.630;2022-11-15T06:05:39;11.40;99.90
23873;DHT22;42884;50.718;4.630;2022-11-15T06:08:05;11.40;99.90
23873;DHT22;42884;50.718;4.630;2022-11-15T06:10:30;11.10;99.90
23873;DHT22;42884;50.718;4.630;2022-11-15T06:12:59;11.20;99.90
23873;DHT22;42884;50.718;4.630;2022-11-15T06:15:25;11.30;99.90
23873;DHT22;42884;50.718;4.630;2022-11-15T06:17:51;11.30;99.90
23873;DHT22;42884;50.718;4.630;2022-11-15T06:20:17;11.20;99.90
23873;DHT22;42884;50.718;4.630;2022-11-15T06:22:42;11.20;99.90
23873;DHT22;42884;50.718;4.630;2022-11-15T06:25:08;11.20;99.90
23873;DHT22;42884;50.718;4.630;2022-11-15T06:27:34;11.20;99.90
23873;DHT22;42884;50.718;4.630;2022-11-15T06:29:59;11.20;99.90
23873;DHT22;42884;50.718;4.630;2022-11-15T06:32:25;11.10;99.90
23873;DHT22;42884;50.718;4.630;2022-11-15T06:34:50;11.00;99.90
23873;DHT22;42884;50.718;4.630;2022-11-15T06:37:16;10.90;99.90
23873;DHT22;42884;50.718;4.630;2022-11-15T06:39:41;10.90;99.90
23873;DHT22;42884;50.718;4.630;2022-11-15T06:42:09;11.00;99.90
23873;DHT22;42884;50.718;4.630;2022-11-15T06:44:35;11.00;99.90
23873;DHT22;42884;50.718;4.630;2022-11-15T06:47:01;10.90;99.90
23873;DHT22;42884;50.718;4.630;2022-11-15T06:49:26;10.90;99.90
23873;DHT22;42884;50.718;4.630;2022-11-15T06:51:52;10.80;99.90
23873;DHT22;42884;50.718;4.630;2022-11-15T06:54:17;10.80;99.90
23873;DHT22;42884;50.718;4.630;2022-11-15T06:56:42;10.70;99.90
23873;DHT22;42884;50.718;4.630;2022-11-15T06:59:08;10.70;99.90
23873;DHT22;42884;50.718;4.630;2022-11-15T07:01:33;10.60;99.90
23873;DHT22;42884;50.718;4.630;2022-11-15T07:03:59;10.70;99.90
23873;DHT22;42884;50.718;4.630;2022-11-15T07:06:24;10.70;99.90
23873;DHT22;42884;50.718;4.630;2022-11-15T07:08:50;10.80;99.90
23873;DHT22;42884;50.718;4.630;2022-11-15T07:11:16;10.70;99.90
23873;DHT22;42884;50.718;4.630;2022-11-15T07:13:41;10.70;99.90
23873;DHT22;42884;50.718;4.630;2022-11-15T07:16:08;10.70;99.90
23873;DHT22;42884;50.718;4.630;2022-11-15T07:18:34;10.60;99.90
23873;DHT22;42884;50.718;4.630;2022-11-15T07:21:01;10.70;99.90
23873;DHT22;42884;50.718;4.630;2022-11-15T07:23:27;10.70;99.90
23873;DHT22;42884;50.718;4.630;2022-11-15T07:25:52;10.70;99.90
23873;DHT22;42884;50.718;4.630;2022-11-15T07:28:18;10.70;99.90
23873;DHT22;42884;50.718;4.630;2022-11-15T07:30:43;10.70;99.90
23873;DHT22;42884;50.718;4.630;2022-11-15T07:33:09;10.60;99.90
23873;DHT22;42884;50.718;4.630;2022-11-15T07:35:34;10.60;99.90
23873;DHT22;42884;50.718;4.630;2022-11-15T07:38:00;10.60;99.90
23873;DHT22;42884;50.718;4.630;2022-11-15T07:40:27;10.70;99.90
23873;DHT22;42884;50.718;4.630;2022-11-15T07:42:58;10.70;99.90
23873;DHT22;42884;50.718;4.630;2022-11-15T07:45:24;10.60;99.90
23873;DHT22;42884;50.718;4.630;2022-11-15T07:47:51;10.60;99.90
23873;DHT22;42884;50.718;4.630;2022-11-15T07:50:17;10.70;99.90
23873;DHT22;42884;50.718;4.630;2022-11-15T07:52:43;10.60;99.90
23873;DHT22;42884;50.718;4.630;2022-11-15T07:55:08;10.60;99.90
23873;DHT22;42884;50.718;4.630;2022-11-15T07:57:34;10.60;99.90
23873;DHT22;42884;50.718;4.630;2022-11-15T08:00:00;10.60;99.90
23873;DHT22;42884;50.718;4.630;2022-11-15T08:02:25;10.50;99.90
23873;DHT22;42884;50.718;4.630;2022-11-15T08:04:51;10.60;99.90
23873;DHT22;42884;50.718;4.630;2022-11-15T08:07:16;10.70;99.90
23873;DHT22;42884;50.718;4.630;2022-11-15T08:09:42;10.70;99.90
23873;DHT22;42884;50.718;4.630;2022-11-15T08:12:07;10.70;99.90
23873;DHT22;42884;50.718;4.630;2022-11-15T08:14:33;10.70;99.90
23873;DHT22;42884;50.718;4.630;2022-11-15T08:16:58;10.70;99.90
23873;DHT22;42884;50.718;4.630;2022-11-15T08:19:24;10.60;99.90
23873;DHT22;42884;50.718;4.630;2022-11-15T08:21:49;10.70;99.90
23873;DHT22;42884;50.718;4.630;2022-11-15T08:24:15;10.70;99.90
23873;DHT22;42884;50.718;4.630;2022-11-15T08:26:41;10.70;99.90
23873;DHT22;42884;50.718;4.630;2022-11-15T08:29:06;10.80;99.90
23873;DHT22;42884;50.718;4.630;2022-11-15T08:31:34;10.80;99.90
23873;DHT22;42884;50.718;4.630;2022-11-15T08:34:00;11.00;99.90
23873;DHT22;42884;50.718;4.630;2022-11-15T08:36:26;10.90;99.90
23873;DHT22;42884;50.718;4.630;2022-11-15T08:38:51;11.10;99.90
23873;DHT22;42884;50.718;4.630;2022-11-15T08:41:27;11.00;99.90
23873;DHT22;42884;50.718;4.630;2022-11-15T08:43:53;11.10;99.90
23873;DHT22;42884;50.718;4.630;2022-11-15T08:46:18;11.10;99.90
23873;DHT22;42884;50.718;4.630;2022-11-15T08:48:44;11.20;99.90
23873;DHT22;42884;50.718;4.630;2022-11-15T08:51:10;11.10;99.90
23873;DHT22;42884;50.718;4.630;2022-11-15T08:53:35;11.20;99.90
23873;DHT22;42884;50.718;4.630;2022-11-15T08:56:01;11.20;99.90
23873;DHT22;42884;50.718;4.630;2022-11-15T08:58:27;11.10;99.90
23873;DHT22;42884;50.718;4.630;2022-11-15T09:00:52;11.10;99.90
23873;DHT22;42884;50.718;4.630;2022-11-15T09:03:18;11.10;99.90
23873;DHT22;42884;50.718;4.630;2022-11-15T09:05:43;11.10;99.90
23873;DHT22;42884;50.718;4.630;2022-11-15T09:08:09;11.10;99.90
23873;DHT22;42884;50.718;4.630;2022-11-15T09:10:34;11.10;99.90
23873;DHT22;42884;50.718;4.630;2022-11-15T09:13:00;11.20;99.90
23873;DHT22;42884;50.718;4.630;2022-11-15T09:15:26;11.30;99.90
23873;DHT22;42884;50.718;4.630;2022-11-15T09:17:51;11.40;99.90
23873;DHT22;42884;50.718;4.630;2022-11-15T09:20:17;11.50;99.90
23873;DHT22;42884;50.718;4.630;2022-11-15T09:22:42;11.60;99.90
23873;DHT22;42884;50.718;4.630;2022-11-15T09:25:08;11.60;99.90
23873;DHT22;42884;50.718;4.630;2022-11-15T09:27:34;11.80;99.90
23873;DHT22;42884;50.718;4.630;2022-11-15T09:29:59;11.80;99.90
23873;DHT22;42884;50.718;4.630;2022-11-15T09:32:28;11.90;99.90
23873;DHT22;42884;50.718;4.630;2022-11-15T09:34:53;11.80;99.90
23873;DHT22;42884;50.718;4.630;2022-11-15T09:37:19;11.90;99.90
23873;DHT22;42884;50.718;4.630;2022-11-15T09:39:44;12.00;99.90
23873;DHT22;42884;50.718;4.630;2022-11-15T09:47:40;12.00;99.90
23873;DHT22;42884;50.718;4.630;2022-11-15T09:50:11;12.10;99.90
23873;DHT22;42884;50.718;4.630;2022-11-15T09:52:37;12.10;99.90
23873;DHT22;42884;50.718;4.630;2022-11-15T09:55:04;12.10;99.90
23873;DHT22;42884;50.718;4.630;2022-11-15T10:05:22;12.10;99.90
23873;DHT22;42884;50.718;4.630;2022-11-15T10:10:39;12.10;99.90
23873;DHT22;42884;50.718;4.630;2022-11-15T10:13:13;12.10;99.90
23873;DHT22;42884;50.718;4.630;2022-11-15T10:15:41;12.10;99.90
23873;DHT22;42884;50.718;4.630;2022-11-15T10:18:08;12.10;99.90
23873;DHT22;42884;50.718;4.630;2022-11-15T10:23:10;12.30;99.90
23873;DHT22;42884;50.718;4.630;2022-11-15T10:25:35;12.40;99.90
23873;DHT22;42884;50.718;4.630;2022-11-15T10:30:51;12.40;99.90
23873;DHT22;42884;50.718;4.630;2022-11-15T10:35:45;12.90;99.90
23873;DHT22;42884;50.718;4.630;2022-11-15T10:38:11;13.10;99.90
23873;DHT22;42884;50.718;4.630;2022-11-15T10:40:37;13.00;99.90
23873;DHT22;42884;50.718;4.630;2022-11-15T10:45:35;13.10;99.90
23873;DHT22;42884;50.718;4.630;2022-11-15T10:48:34;13.20;99.90
23873;DHT22;42884;50.718;4.630;2022-11-15T10:50:53;13.30;99.90
23873;DHT22;42884;50.718;4.630;2022-11-15T10:53:41;13.20;99.90
23873;DHT22;42884;50.718;4.630;2022-11-15T10:56:12;13.10;99.90
23873;DHT22;42884;50.718;4.630;2022-11-15T10:58:41;13.10;99.90
23873;DHT22;42884;50.718;4.630;2022-11-15T11:01:14;13.20;99.90
23873;DHT22;42884;50.718;4.630;2022-11-15T11:03:41;13.40;99.90
23873;DHT22;42884;50.718;4.630;2022-11-15T11:06:14;13.30;99.90
23873;DHT22;42884;50.718;4.630;2022-11-15T11:08:39;13.40;99.90
23873;DHT22;42884;50.718;4.630;2022-11-15T11:11:06;13.30;99.90
23873;DHT22;42884;50.718;4.630;2022-11-15T11:13:33;13.30;99.90
23873;DHT22;42884;50.718;4.630;2022-11-15T11:16:22;13.50;99.90
23873;DHT22;42884;50.718;4.630;2022-11-15T11:18:48;13.60;99.90
23873;DHT22;42884;50.718;4.630;2022-11-15T11:21:17;13.60;99.90
23873;DHT22;42884;50.718;4.630;2022-11-15T11:23:51;13.70;99.90
23873;DHT22;42884;50.718;4.630;2022-11-15T11:31:54;13.70;99.90
23873;DHT22;42884;50.718;4.630;2022-11-15T11:34:33;13.80;99.90
23873;DHT22;42884;50.718;4.630;2022-11-15T11:37:03;14.00;99.90
23873;DHT22;42884;50.718;4.630;2022-11-15T11:44:47;14.10;99.90
23873;DHT22;42884;50.718;4.630;2022-11-15T11:47:28;14.10;99.90
23873;DHT22;42884;50.718;4.630;2022-11-15T11:49:59;14.10;99.90
23873;DHT22;42884;50.718;4.630;2022-11-15T11:52:33;14.00;99.90
23873;DHT22;42884;50.718;4.630;2022-11-15T11:57:34;14.10;99.90
23873;DHT22;42884;50.718;4.630;2022-11-15T12:00:09;14.20;99.90
23873;DHT22;42884;50.718;4.630;2022-11-15T12:02:38;14.10;99.90
23873;DHT22;42884;50.718;4.630;2022-11-15T12:05:13;14.00;99.90
23873;DHT22;42884;50.718;4.630;2022-11-15T12:07:41;14.10;99.90
23873;DHT22;42884;50.718;4.630;2022-11-15T12:12:44;14.00;99.90
23873;DHT22;42884;50.718;4.630;2022-11-15T12:15:13;14.00;99.90
23873;DHT22;42884;50.718;4.630;2022-11-15T12:17:39;14.00;99.90
23873;DHT22;42884;50.718;4.630;2022-11-15T12:20:16;14.00;99.90
23873;DHT22;42884;50.718;4.630;2022-11-15T12:25:35;14.10;99.90
23873;DHT22;42884;50.718;4.630;2022-11-15T12:28:06;14.20;99.90
23873;DHT22;42884;50.718;4.630;2022-11-15T12:30:51;14.20;99.90
23873;DHT22;42884;50.718;4.630;2022-11-15T12:36:11;14.30;99.90
23873;DHT22;42884;50.718;4.630;2022-11-15T12:38:57;14.20;99.90
23873;DHT22;42884;50.718;4.630;2022-11-15T12:41:25;14.30;99.90
23873;DHT22;42884;50.718;4.630;2022-11-15T12:43:51;14.40;99.90
23873;DHT22;42884;50.718;4.630;2022-11-15T12:48:58;14.30;99.90
23873;DHT22;42884;50.718;4.630;2022-11-15T12:54:30;14.40;99.90
23873;DHT22;42884;50.718;4.630;2022-11-15T13:02:32;14.50;99.90
23873;DHT22;42884;50.718;4.630;2022-11-15T13:17:51;14.60;99.90
23873;DHT22;42884;50.718;4.630;2022-11-15T13:20:19;14.70;99.90
23873;DHT22;42884;50.718;4.630;2022-11-15T13:30:40;14.60;99.90
23873;DHT22;42884;50.718;4.630;2022-11-15T13:35:47;14.70;99.90
23873;DHT22;42884;50.718;4.630;2022-11-15T13:38:19;14.70;99.90
23873;DHT22;42884;50.718;4.630;2022-11-15T13:40:45;14.80;99.90
23873;DHT22;42884;50.718;4.630;2022-11-15T13:43:23;14.70;99.90
23873;DHT22;42884;50.718;4.630;2022-11-15T13:48:38;14.70;99.90
23873;DHT22;42884;50.718;4.630;2022-11-15T13:51:05;14.70;99.90
23873;DHT22;42884;50.718;4.630;2022-11-15T13:53:32;14.70;99.90
23873;DHT22;42884;50.718;4.630;2022-11-15T13:55:58;14.60;99.90
23873;DHT22;42884;50.718;4.630;2022-11-15T13:58:24;14.60;99.90
23873;DHT22;42884;50.718;4.630;2022-11-15T14:00:57;14.70;99.90
23873;DHT22;42884;50.718;4.630;2022-11-15T14:08:29;14.50;99.90
23873;DHT22;42884;50.718;4.630;2022-11-15T14:13:39;14.50;99.90
23873;DHT22;42884;50.718;4.630;2022-11-15T14:16:20;14.60;99.90
23873;DHT22;42884;50.718;4.630;2022-11-15T14:18:50;14.40;99.90
23873;DHT22;42884;50.718;4.630;2022-11-15T14:21:16;14.50;99.90
23873;DHT22;42884;50.718;4.630;2022-11-15T14:23:42;14.40;99.90
23873;DHT22;42884;50.718;4.630;2022-11-15T14:26:25;14.40;99.90
23873;DHT22;42884;50.718;4.630;2022-11-15T14:28:51;14.30;99.90
23873;DHT22;42884;50.718;4.630;2022-11-15T14:31:16;14.30;99.90
23873;DHT22;42884;50.718;4.630;2022-11-15T14:33:42;14.30;99.90
23873;DHT22;42884;50.718;4.630;2022-11-15T14:36:12;14.40;99.90
23873;DHT22;42884;50.718;4.630;2022-11-15T14:38:38;14.40;99.90
23873;DHT22;42884;50.718;4.630;2022-11-15T14:41:04;14.40;99.90
23873;DHT22;42884;50.718;4.630;2022-11-15T14:43:31;14.40;99.90
23873;DHT22;42884;50.718;4.630;2022-11-15T14:45:56;14.40;99.90
23873;DHT22;42884;50.718;4.630;2022-11-15T14:48:22;14.40;99.90
23873;DHT22;42884;50.718;4.630;2022-11-15T14:50:48;14.20;99.90
23873;DHT22;42884;50.718;4.630;2022-11-15T14:53:14;14.20;99.90
23873;DHT22;42884;50.718;4.630;2022-11-15T14:55:40;14.20;99.90
23873;DHT22;42884;50.718;4.630;2022-11-15T14:58:06;14.20;99.90
23873;DHT22;42884;50.718;4.630;2022-11-15T15:00:35;14.00;99.90
23873;DHT22;42884;50.718;4.630;2022-11-15T15:03:02;14.10;99.90
23873;DHT22;42884;50.718;4.630;2022-11-15T15:05:39;14.00;99.90
23873;DHT22;42884;50.718;4.630;2022-11-15T15:08:05;14.00;99.90
23873;DHT22;42884;50.718;4.630;2022-11-15T15:10:31;14.00;99.90
23873;DHT22;42884;50.718;4.630;2022-11-15T15:12:58;14.10;99.90
23873;DHT22;42884;50.718;4.630;2022-11-15T15:15:25;14.00;99.90
23873;DHT22;42884;50.718;4.630;2022-11-15T15:17:50;14.00;99.90
23873;DHT22;42884;50.718;4.630;2022-11-15T15:20:16;13.90;99.90
23873;DHT22;42884;50.718;4.630;2022-11-15T15:22:41;14.00;99.90
23873;DHT22;42884;50.718;4.630;2022-11-15T15:25:26;14.00;99.90
23873;DHT22;42884;50.718;4.630;2022-11-15T15:27:52;13.90;99.90
23873;DHT22;42884;50.718;4.630;2022-11-15T15:30:18;13.80;99.90
23873;DHT22;42884;50.718;4.630;2022-11-15T15:32:44;13.80;99.90
23873;DHT22;42884;50.718;4.630;2022-11-15T15:35:13;13.80;99.90
23873;DHT22;42884;50.718;4.630;2022-11-15T15:37:39;13.70;99.90
23873;DHT22;42884;50.718;4.630;2022-11-15T15:40:10;13.70;99.90
23873;DHT22;42884;50.718;4.630;2022-11-15T15:42:37;13.70;99.90
23873;DHT22;42884;50.718;4.630;2022-11-15T15:45:03;13.70;99.90
23873;DHT22;42884;50.718;4.630;2022-11-15T15:47:29;13.70;99.90
23873;DHT22;42884;50.718;4.630;2022-11-15T15:49:54;13.70;99.90
23873;DHT22;42884;50.718;4.630;2022-11-15T15:52:20;13.60;99.90
23873;DHT22;42884;50.718;4.630;2022-11-15T15:54:45;13.50;99.90
23873;DHT22;42884;50.718;4.630;2022-11-15T15:57:11;13.50;99.90
23873;DHT22;42884;50.718;4.630;2022-11-15T15:59:37;13.40;99.90
23873;DHT22;42884;50.718;4.630;2022-11-15T16:02:03;13.40;99.90
23873;DHT22;42884;50.718;4.630;2022-11-15T16:04:29;13.50;99.90
23873;DHT22;42884;50.718;4.630;2022-11-15T16:06:58;13.40;99.90
23873;DHT22;42884;50.718;4.630;2022-11-15T16:09:24;13.40;99.90
23873;DHT22;42884;50.718;4.630;2022-11-15T16:12:08;13.50;99.90
23873;DHT22;42884;50.718;4.630;2022-11-15T16:14:34;13.50;99.90
23873;DHT22;42884;50.718;4.630;2022-11-15T16:17:00;13.40;99.90
23873;DHT22;42884;50.718;4.630;2022-11-15T16:19:25;13.40;99.90
23873;DHT22;42884;50.718;4.630;2022-11-15T16:21:51;13.50;99.90
23873;DHT22;42884;50.718;4.630;2022-11-15T16:24:19;13.40;99.90
23873;DHT22;42884;50.718;4.630;2022-11-15T16:26:46;13.50;99.90
23873;DHT22;42884;50.718;4.630;2022-11-15T16:29:12;13.50;99.90
23873;DHT22;42884;50.718;4.630;2022-11-15T16:31:37;13.40;99.90
23873;DHT22;42884;50.718;4.630;2022-11-15T16:34:03;13.40;99.90
23873;DHT22;42884;50.718;4.630;2022-11-15T16:36:30;13.50;99.90
23873;DHT22;42884;50.718;4.630;2022-11-15T16:38:56;13.40;99.90
23873;DHT22;42884;50.718;4.630;2022-11-15T16:41:21;13.30;99.90
23873;DHT22;42884;50.718;4.630;2022-11-15T16:43:47;13.30;99.90
23873;DHT22;42884;50.718;4.630;2022-11-15T16:46:20;13.30;99.90
23873;DHT22;42884;50.718;4.630;2022-11-15T16:48:46;13.20;99.90
23873;DHT22;42884;50.718;4.630;2022-11-15T16:51:12;13.20;99.90
23873;DHT22;42884;50.718;4.630;2022-11-15T16:53:37;13.30;99.90
23873;DHT22;42884;50.718;4.630;2022-11-15T16:56:03;13.30;99.90
23873;DHT22;42884;50.718;4.630;2022-11-15T16:58:29;13.30;99.90
23873;DHT22;42884;50.718;4.630;2022-11-15T17:00:55;13.40;99.90
23873;DHT22;42884;50.718;4.630;2022-11-15T17:03:21;13.40;99.90
23873;DHT22;42884;50.718;4.630;2022-11-15T17:05:47;13.30;99.90
23873;DHT22;42884;50.718;4.630;2022-11-15T17:08:13;13.40;99.90
23873;DHT22;42884;50.718;4.630;2022-11-15T17:10:39;13.40;99.90
23873;DHT22;42884;50.718;4.630;2022-11-15T17:13:05;13.30;99.90
23873;DHT22;42884;50.718;4.630;2022-11-15T17:15:32;13.20;99.90
23873;DHT22;42884;50.718;4.630;2022-11-15T17:17:58;13.30;99.90
23873;DHT22;42884;50.718;4.630;2022-11-15T17:20:24;13.40;99.90
23873;DHT22;42884;50.718;4.630;2022-11-15T17:22:49;13.50;99.90
23873;DHT22;42884;50.718;4.630;2022-11-15T17:25:17;13.40;99.90
23873;DHT22;42884;50.718;4.630;2022-11-15T17:27:42;13.40;99.90
23873;DHT22;42884;50.718;4.630;2022-11-15T17:30:09;13.50;99.90
23873;DHT22;42884;50.718;4.630;2022-11-15T17:32:36;13.40;99.90
23873;DHT22;42884;50.718;4.630;2022-11-15T17:35:02;13.50;99.90
23873;DHT22;42884;50.718;4.630;2022-11-15T17:37:27;13.40;99.90
23873;DHT22;42884;50.718;4.630;2022-11-15T17:39:53;13.50;99.90
23873;DHT22;42884;50.718;4.630;2022-11-15T17:42:18;13.50;99.90
23873;DHT22;42884;50.718;4.630;2022-11-15T17:44:44;13.40;99.90